sensor_id;sensor_type;location;lat;lon;timestamp;P1;durP1;ratioP1;P2;durP2;ratioP2
74510;SDS011;62991;50.040;18.400;2022-10-26T00:00:28;7.63;;;3.63;;
74510;SDS011;62991;50.040;18.400;2022-10-26T00:03:29;12.90;;;3.90;;
74510;SDS011;62991;50.040;18.400;2022-10-26T00:06:30;6.60;;;3.38;;
74510;SDS011;62991;50.040;18.400;2022-10-26T00:09:30;37.08;;;14.75;;
74510;SDS011;62991;50.040;18.400;2022-10-26T00:12:31;17.73;;;6.95;;
74510;SDS011;62991;50.040;18.400;2022-10-26T00:15:32;9.02;;;4.85;;
74510;SDS011;62991;50.040;18.400;2022-10-26T00:18:32;40.42;;;14.80;;
74510;SDS011;62991;50.040;18.400;2022-10-26T00:21:33;18.17;;;7.88;;
74510;SDS011;62991;50.040;18.400;2022-10-26T00:24:34;20.27;;;9.00;;
74510;SDS011;62991;50.040;18.400;2022-10-26T00:27:34;22.52;;;7.53;;
74510;SDS011;62991;50.040;18.400;2022-10-26T00:30:38;14.73;;;8.02;;
74510;SDS011;62991;50.040;18.400;2022-10-26T00:33:39;22.95;;;11.32;;
74510;SDS011;62991;50.040;18.400;2022-10-26T00:36:40;22.05;;;8.80;;
74510;SDS011;62991;50.040;18.400;2022-10-26T00:39:41;12.63;;;6.55;;
74510;SDS011;62991;50.040;18.400;2022-10-26T00:42:41;16.63;;;7.00;;
74510;SDS011;62991;50.040;18.400;2022-10-26T00:45:42;11.35;;;6.40;;
74510;SDS011;62991;50.040;18.400;2022-10-26T00:48:45;12.45;;;6.57;;
74510;SDS011;62991;50.040;18.400;2022-10-26T00:51:51;13.35;;;6.88;;
74510;SDS011;62991;50.040;18.400;2022-10-26T00:54:52;18.00;;;6.55;;
74510;SDS011;62991;50.040;18.400;2022-10-26T00:57:54;11.82;;;6.68;;
74510;SDS011;62991;50.040;18.400;2022-10-26T01:00:54;14.68;;;6.07;;
74510;SDS011;62991;50.040;18.400;2022-10-26T01:03:56;16.80;;;7.32;;
74510;SDS011;62991;50.040;18.400;2022-10-26T01:06:57;13.60;;;7.32;;
74510;SDS011;62991;50.040;18.400;2022-10-26T01:10:00;15.25;;;9.52;;
74510;SDS011;62991;50.040;18.400;2022-10-26T01:13:01;20.58;;;9.30;;
74510;SDS011;62991;50.040;18.400;2022-10-26T01:29:40;18.83;;;9.57;;
74510;SDS011;62991;50.040;18.400;2022-10-26T01:39:28;20.00;;;8.60;;
74510;SDS011;62991;50.040;18.400;2022-10-26T01:42:35;17.83;;;7.35;;
74510;SDS011;62991;50.040;18.400;2022-10-26T01:45:42;15.55;;;7.43;;
74510;SDS011;62991;50.040;18.400;2022-10-26T01:48:46;15.52;;;8.27;;
74510;SDS011;62991;50.040;18.400;2022-10-26T01:51:49;15.68;;;8.23;;
74510;SDS011;62991;50.040;18.400;2022-10-26T01:54:50;17.17;;;7.00;;
74510;SDS011;62991;50.040;18.400;2022-10-26T01:57:51;15.30;;;7.50;;
74510;SDS011;62991;50.040;18.400;2022-10-26T02:01:02;15.88;;;7.65;;
74510;SDS011;62991;50.040;18.400;2022-10-26T02:07:59;21.30;;;8.18;;
74510;SDS011;62991;50.040;18.400;2022-10-26T02:17:28;12.88;;;6.20;;
74510;SDS011;62991;50.040;18.400;2022-10-26T02:20:49;12.07;;;5.70;;
74510;SDS011;62991;50.040;18.400;2022-10-26T02:23:54;12.45;;;6.13;;
74510;SDS011;62991;50.040;18.400;2022-10-26T02:26:57;14.95;;;6.50;;
74510;SDS011;62991;50.040;18.400;2022-10-26T02:30:00;12.63;;;6.95;;
74510;SDS011;62991;50.040;18.400;2022-10-26T02:33:04;9.70;;;5.18;;
74510;SDS011;62991;50.040;18.400;2022-10-26T02:36:08;12.05;;;6.07;;
74510;SDS011;62991;50.040;18.400;2022-10-26T02:39:13;9.23;;;5.03;;
74510;SDS011;62991;50.040;18.400;2022-10-26T02:42:15;15.02;;;5.47;;
74510;SDS011;62991;50.040;18.400;2022-10-26T02:45:30;15.07;;;4.57;;
74510;SDS011;62991;50.040;18.400;2022-10-26T02:48:36;11.55;;;5.15;;
74510;SDS011;62991;50.040;18.400;2022-10-26T02:51:43;11.45;;;5.70;;
74510;SDS011;62991;50.040;18.400;2022-10-26T02:54:52;9.80;;;4.85;;
74510;SDS011;62991;50.040;18.400;2022-10-26T02:58:03;10.88;;;5.50;;
74510;SDS011;62991;50.040;18.400;2022-10-26T03:01:11;11.50;;;6.03;;
74510;SDS011;62991;50.040;18.400;2022-10-26T03:04:13;14.32;;;6.15;;
74510;SDS011;62991;50.040;18.400;2022-10-26T03:07:19;13.00;;;6.32;;
74510;SDS011;62991;50.040;18.400;2022-10-26T03:10:20;12.38;;;6.03;;
74510;SDS011;62991;50.040;18.400;2022-10-26T03:13:21;16.48;;;7.90;;
74510;SDS011;62991;50.040;18.400;2022-10-26T03:16:22;15.85;;;7.03;;
74510;SDS011;62991;50.040;18.400;2022-10-26T03:19:23;11.38;;;6.50;;
74510;SDS011;62991;50.040;18.400;2022-10-26T03:22:24;9.57;;;6.05;;
74510;SDS011;62991;50.040;18.400;2022-10-26T03:25:25;24.73;;;7.75;;
74510;SDS011;62991;50.040;18.400;2022-10-26T03:28:26;16.98;;;6.75;;
74510;SDS011;62991;50.040;18.400;2022-10-26T03:31:26;18.50;;;8.00;;
74510;SDS011;62991;50.040;18.400;2022-10-26T03:34:27;17.52;;;8.73;;
74510;SDS011;62991;50.040;18.400;2022-10-26T03:37:28;18.40;;;8.27;;
74510;SDS011;62991;50.040;18.400;2022-10-26T03:40:29;11.35;;;6.47;;
74510;SDS011;62991;50.040;18.400;2022-10-26T03:43:29;17.02;;;6.97;;
74510;SDS011;62991;50.040;18.400;2022-10-26T03:46:30;15.93;;;7.45;;
74510;SDS011;62991;50.040;18.400;2022-10-26T03:49:31;18.27;;;8.88;;
74510;SDS011;62991;50.040;18.400;2022-10-26T03:52:31;27.63;;;11.25;;
74510;SDS011;62991;50.040;18.400;2022-10-26T03:55:32;36.28;;;11.80;;
74510;SDS011;62991;50.040;18.400;2022-10-26T03:58:33;23.63;;;10.18;;
74510;SDS011;62991;50.040;18.400;2022-10-26T04:01:33;23.52;;;11.93;;
74510;SDS011;62991;50.040;18.400;2022-10-26T04:04:34;26.33;;;14.48;;
74510;SDS011;62991;50.040;18.400;2022-10-26T04:07:35;25.48;;;13.63;;
74510;SDS011;62991;50.040;18.400;2022-10-26T04:10:35;22.02;;;11.13;;
74510;SDS011;62991;50.040;18.400;2022-10-26T04:13:36;27.30;;;11.27;;
74510;SDS011;62991;50.040;18.400;2022-10-26T04:16:37;30.58;;;16.35;;
74510;SDS011;62991;50.040;18.400;2022-10-26T04:19:38;22.83;;;12.30;;
74510;SDS011;62991;50.040;18.400;2022-10-26T04:22:38;17.63;;;7.93;;
74510;SDS011;62991;50.040;18.400;2022-10-26T04:25:39;9.98;;;5.72;;
74510;SDS011;62991;50.040;18.400;2022-10-26T04:28:41;14.88;;;6.82;;
74510;SDS011;62991;50.040;18.400;2022-10-26T04:31:42;16.70;;;6.82;;
74510;SDS011;62991;50.040;18.400;2022-10-26T04:34:43;30.45;;;10.77;;
74510;SDS011;62991;50.040;18.400;2022-10-26T04:37:43;21.30;;;8.90;;
74510;SDS011;62991;50.040;18.400;2022-10-26T04:40:44;22.40;;;9.18;;
74510;SDS011;62991;50.040;18.400;2022-10-26T04:43:45;17.40;;;8.27;;
74510;SDS011;62991;50.040;18.400;2022-10-26T04:46:46;20.20;;;10.10;;
74510;SDS011;62991;50.040;18.400;2022-10-26T04:49:46;19.23;;;8.60;;
74510;SDS011;62991;50.040;18.400;2022-10-26T04:52:49;13.07;;;7.63;;
74510;SDS011;62991;50.040;18.400;2022-10-26T04:55:57;14.32;;;6.50;;
74510;SDS011;62991;50.040;18.400;2022-10-26T05:02:02;16.20;;;7.88;;
74510;SDS011;62991;50.040;18.400;2022-10-26T05:05:03;10.63;;;5.65;;
74510;SDS011;62991;50.040;18.400;2022-10-26T05:08:04;19.23;;;7.80;;
74510;SDS011;62991;50.040;18.400;2022-10-26T05:11:05;17.50;;;7.47;;
74510;SDS011;62991;50.040;18.400;2022-10-26T05:14:05;18.30;;;8.32;;
74510;SDS011;62991;50.040;18.400;2022-10-26T05:17:06;20.60;;;8.48;;
74510;SDS011;62991;50.040;18.400;2022-10-26T05:20:07;18.92;;;8.23;;
74510;SDS011;62991;50.040;18.400;2022-10-26T05:23:12;20.13;;;8.75;;
74510;SDS011;62991;50.040;18.400;2022-10-26T05:26:17;16.77;;;8.48;;
74510;SDS011;62991;50.040;18.400;2022-10-26T05:29:18;21.52;;;9.65;;
74510;SDS011;62991;50.040;18.400;2022-10-26T05:32:18;20.95;;;9.65;;
74510;SDS011;62991;50.040;18.400;2022-10-26T05:35:19;24.95;;;9.88;;
74510;SDS011;62991;50.040;18.400;2022-10-26T05:38:20;15.07;;;8.27;;
74510;SDS011;62991;50.040;18.400;2022-10-26T05:41:21;15.30;;;7.82;;
74510;SDS011;62991;50.040;18.400;2022-10-26T05:44:21;15.75;;;7.88;;
74510;SDS011;62991;50.040;18.400;2022-10-26T05:47:22;14.45;;;7.70;;
74510;SDS011;62991;50.040;18.400;2022-10-26T05:50:23;15.88;;;7.70;;
74510;SDS011;62991;50.040;18.400;2022-10-26T05:53:23;14.27;;;7.85;;
74510;SDS011;62991;50.040;18.400;2022-10-26T05:56:34;19.88;;;8.35;;
74510;SDS011;62991;50.040;18.400;2022-10-26T05:59:36;17.08;;;9.10;;
74510;SDS011;62991;50.040;18.400;2022-10-26T06:02:41;20.23;;;8.55;;
74510;SDS011;62991;50.040;18.400;2022-10-26T06:05:51;20.55;;;9.48;;
74510;SDS011;62991;50.040;18.400;2022-10-26T06:08:56;17.92;;;7.65;;
74510;SDS011;62991;50.040;18.400;2022-10-26T06:11:57;17.98;;;7.65;;
74510;SDS011;62991;50.040;18.400;2022-10-26T06:14:58;50.83;;;21.10;;
74510;SDS011;62991;50.040;18.400;2022-10-26T06:28:07;19.98;;;10.15;;
74510;SDS011;62991;50.040;18.400;2022-10-26T06:31:21;23.23;;;12.98;;
74510;SDS011;62991;50.040;18.400;2022-10-26T06:34:26;34.15;;;15.82;;
74510;SDS011;62991;50.040;18.400;2022-10-26T06:37:35;32.63;;;15.32;;
74510;SDS011;62991;50.040;18.400;2022-10-26T06:40:38;25.48;;;11.65;;
74510;SDS011;62991;50.040;18.400;2022-10-26T06:43:41;25.85;;;10.73;;
74510;SDS011;62991;50.040;18.400;2022-10-26T06:46:42;20.55;;;9.30;;
74510;SDS011;62991;50.040;18.400;2022-10-26T06:49:54;20.85;;;9.00;;
74510;SDS011;62991;50.040;18.400;2022-10-26T06:56:43;22.00;;;9.55;;
74510;SDS011;62991;50.040;18.400;2022-10-26T07:02:49;19.25;;;8.27;;
74510;SDS011;62991;50.040;18.400;2022-10-26T07:05:50;14.32;;;7.00;;
74510;SDS011;62991;50.040;18.400;2022-10-26T07:08:51;14.07;;;6.70;;
74510;SDS011;62991;50.040;18.400;2022-10-26T07:11:52;19.73;;;7.72;;
74510;SDS011;62991;50.040;18.400;2022-10-26T07:14:53;15.70;;;6.35;;
74510;SDS011;62991;50.040;18.400;2022-10-26T07:17:53;12.15;;;6.22;;
74510;SDS011;62991;50.040;18.400;2022-10-26T07:20:54;13.07;;;6.50;;
74510;SDS011;62991;50.040;18.400;2022-10-26T07:23:57;17.90;;;6.28;;
74510;SDS011;62991;50.040;18.400;2022-10-26T07:26:58;12.23;;;5.68;;
74510;SDS011;62991;50.040;18.400;2022-10-26T07:29:58;17.52;;;6.22;;
74510;SDS011;62991;50.040;18.400;2022-10-26T07:33:00;16.30;;;5.60;;
74510;SDS011;62991;50.040;18.400;2022-10-26T07:36:09;15.65;;;7.00;;
74510;SDS011;62991;50.040;18.400;2022-10-26T07:39:10;17.40;;;7.15;;
74510;SDS011;62991;50.040;18.400;2022-10-26T07:42:11;20.33;;;6.70;;
74510;SDS011;62991;50.040;18.400;2022-10-26T07:45:12;13.77;;;6.50;;
74510;SDS011;62991;50.040;18.400;2022-10-26T07:48:12;12.52;;;6.47;;
74510;SDS011;62991;50.040;18.400;2022-10-26T07:51:13;14.93;;;6.50;;
74510;SDS011;62991;50.040;18.400;2022-10-26T07:54:14;28.00;;;10.50;;
74510;SDS011;62991;50.040;18.400;2022-10-26T07:57:15;17.38;;;7.97;;
74510;SDS011;62991;50.040;18.400;2022-10-26T08:00:16;14.18;;;6.63;;
74510;SDS011;62991;50.040;18.400;2022-10-26T08:03:17;18.45;;;6.78;;
74510;SDS011;62991;50.040;18.400;2022-10-26T08:06:19;18.33;;;7.28;;
74510;SDS011;62991;50.040;18.400;2022-10-26T08:09:20;14.32;;;6.32;;
74510;SDS011;62991;50.040;18.400;2022-10-26T08:12:21;16.73;;;5.63;;
74510;SDS011;62991;50.040;18.400;2022-10-26T08:15:22;11.95;;;5.60;;
74510;SDS011;62991;50.040;18.400;2022-10-26T08:18:23;11.57;;;6.05;;
74510;SDS011;62991;50.040;18.400;2022-10-26T08:21:24;9.93;;;4.95;;
74510;SDS011;62991;50.040;18.400;2022-10-26T08:24:24;10.32;;;4.90;;
74510;SDS011;62991;50.040;18.400;2022-10-26T08:27:25;11.77;;;5.53;;
74510;SDS011;62991;50.040;18.400;2022-10-26T08:30:26;9.63;;;4.63;;
74510;SDS011;62991;50.040;18.400;2022-10-26T08:33:26;10.52;;;5.22;;
74510;SDS011;62991;50.040;18.400;2022-10-26T08:36:27;7.45;;;4.30;;
74510;SDS011;62991;50.040;18.400;2022-10-26T08:39:28;6.80;;;3.72;;
74510;SDS011;62991;50.040;18.400;2022-10-26T08:42:35;10.35;;;3.67;;
74510;SDS011;62991;50.040;18.400;2022-10-26T08:45:44;8.32;;;3.67;;
74510;SDS011;62991;50.040;18.400;2022-10-26T08:48:59;8.02;;;4.20;;
74510;SDS011;62991;50.040;18.400;2022-10-26T08:52:11;20.77;;;4.70;;
74510;SDS011;62991;50.040;18.400;2022-10-26T08:55:17;8.45;;;3.67;;
74510;SDS011;62991;50.040;18.400;2022-10-26T08:58:23;9.55;;;3.30;;
74510;SDS011;62991;50.040;18.400;2022-10-26T09:01:32;9.20;;;3.78;;
74510;SDS011;62991;50.040;18.400;2022-10-26T09:04:33;12.82;;;4.75;;
74510;SDS011;62991;50.040;18.400;2022-10-26T09:26:26;6.55;;;3.30;;
74510;SDS011;62991;50.040;18.400;2022-10-26T09:29:35;7.13;;;2.78;;
74510;SDS011;62991;50.040;18.400;2022-10-26T09:32:42;11.35;;;3.72;;
74510;SDS011;62991;50.040;18.400;2022-10-26T09:35:51;5.97;;;3.05;;
74510;SDS011;62991;50.040;18.400;2022-10-26T09:39:00;6.03;;;2.95;;
74510;SDS011;62991;50.040;18.400;2022-10-26T09:42:14;8.57;;;3.60;;
74510;SDS011;62991;50.040;18.400;2022-10-26T09:45:26;10.60;;;3.17;;
74510;SDS011;62991;50.040;18.400;2022-10-26T09:48:50;7.20;;;2.72;;
74510;SDS011;62991;50.040;18.400;2022-10-26T09:51:55;8.02;;;3.08;;
74510;SDS011;62991;50.040;18.400;2022-10-26T09:54:56;8.40;;;2.97;;
74510;SDS011;62991;50.040;18.400;2022-10-26T09:57:57;8.82;;;3.53;;
74510;SDS011;62991;50.040;18.400;2022-10-26T10:01:01;12.07;;;2.65;;
74510;SDS011;62991;50.040;18.400;2022-10-26T10:04:13;5.38;;;2.63;;
74510;SDS011;62991;50.040;18.400;2022-10-26T10:07:19;8.60;;;2.88;;
74510;SDS011;62991;50.040;18.400;2022-10-26T10:10:20;6.25;;;2.97;;
74510;SDS011;62991;50.040;18.400;2022-10-26T10:13:22;6.72;;;2.53;;
74510;SDS011;62991;50.040;18.400;2022-10-26T10:16:25;5.75;;;2.78;;
74510;SDS011;62991;50.040;18.400;2022-10-26T10:22:34;3.97;;;2.28;;
74510;SDS011;62991;50.040;18.400;2022-10-26T10:25:38;10.60;;;2.47;;
74510;SDS011;62991;50.040;18.400;2022-10-26T10:28:39;4.70;;;1.55;;
74510;SDS011;62991;50.040;18.400;2022-10-26T10:31:41;7.35;;;2.03;;
74510;SDS011;62991;50.040;18.400;2022-10-26T10:34:55;4.75;;;2.13;;
74510;SDS011;62991;50.040;18.400;2022-10-26T10:37:58;5.50;;;2.35;;
74510;SDS011;62991;50.040;18.400;2022-10-26T10:40:59;6.35;;;2.30;;
74510;SDS011;62991;50.040;18.400;2022-10-26T10:47:06;4.97;;;1.75;;
74510;SDS011;62991;50.040;18.400;2022-10-26T10:50:17;5.82;;;1.90;;
74510;SDS011;62991;50.040;18.400;2022-10-26T10:56:41;5.63;;;2.00;;
74510;SDS011;62991;50.040;18.400;2022-10-26T11:03:13;2.70;;;1.58;;
74510;SDS011;62991;50.040;18.400;2022-10-26T11:06:32;4.50;;;1.70;;
74510;SDS011;62991;50.040;18.400;2022-10-26T11:09:38;5.00;;;2.33;;
74510;SDS011;62991;50.040;18.400;2022-10-26T11:12:48;6.00;;;2.40;;
74510;SDS011;62991;50.040;18.400;2022-10-26T11:15:59;4.25;;;2.08;;
74510;SDS011;62991;50.040;18.400;2022-10-26T11:19:11;5.90;;;2.30;;
74510;SDS011;62991;50.040;18.400;2022-10-26T11:22:33;4.85;;;1.98;;
74510;SDS011;62991;50.040;18.400;2022-10-26T11:25:47;5.85;;;1.90;;
74510;SDS011;62991;50.040;18.400;2022-10-26T11:32:19;4.60;;;1.80;;
74510;SDS011;62991;50.040;18.400;2022-10-26T11:35:44;4.78;;;1.70;;
74510;SDS011;62991;50.040;18.400;2022-10-26T11:45:35;5.03;;;1.85;;
74510;SDS011;62991;50.040;18.400;2022-10-26T11:55:29;3.53;;;1.27;;
74510;SDS011;62991;50.040;18.400;2022-10-26T11:58:30;4.63;;;1.55;;
74510;SDS011;62991;50.040;18.400;2022-10-26T12:01:32;2.67;;;1.35;;
74510;SDS011;62991;50.040;18.400;2022-10-26T12:04:34;7.57;;;1.70;;
74510;SDS011;62991;50.040;18.400;2022-10-26T12:07:37;2.35;;;1.38;;
74510;SDS011;62991;50.040;18.400;2022-10-26T12:10:41;2.47;;;1.20;;
74510;SDS011;62991;50.040;18.400;2022-10-26T12:17:25;3.72;;;1.70;;
74510;SDS011;62991;50.040;18.400;2022-10-26T12:27:00;5.55;;;1.63;;
74510;SDS011;62991;50.040;18.400;2022-10-26T12:36:47;6.78;;;1.70;;
74510;SDS011;62991;50.040;18.400;2022-10-26T12:39:48;6.38;;;2.28;;
74510;SDS011;62991;50.040;18.400;2022-10-26T12:42:49;3.58;;;1.70;;
74510;SDS011;62991;50.040;18.400;2022-10-26T12:53:05;6.75;;;2.03;;
74510;SDS011;62991;50.040;18.400;2022-10-26T12:56:10;9.10;;;2.15;;
74510;SDS011;62991;50.040;18.400;2022-10-26T13:09:36;4.68;;;2.15;;
74510;SDS011;62991;50.040;18.400;2022-10-26T13:12:44;3.15;;;1.50;;
74510;SDS011;62991;50.040;18.400;2022-10-26T13:16:05;4.28;;;1.40;;
74510;SDS011;62991;50.040;18.400;2022-10-26T13:22:30;2.80;;;1.48;;
74510;SDS011;62991;50.040;18.400;2022-10-26T13:25:31;3.92;;;1.50;;
74510;SDS011;62991;50.040;18.400;2022-10-26T13:34:40;2.30;;;1.38;;
74510;SDS011;62991;50.040;18.400;2022-10-26T13:37:44;4.60;;;1.40;;
74510;SDS011;62991;50.040;18.400;2022-10-26T13:40:47;4.80;;;1.70;;
74510;SDS011;62991;50.040;18.400;2022-10-26T13:43:51;3.85;;;1.50;;
74510;SDS011;62991;50.040;18.400;2022-10-26T13:46:53;4.05;;;1.80;;
74510;SDS011;62991;50.040;18.400;2022-10-26T13:50:04;3.90;;;2.00;;
74510;SDS011;62991;50.040;18.400;2022-10-26T13:53:13;5.32;;;1.83;;
74510;SDS011;62991;50.040;18.400;2022-10-26T13:56:24;2.58;;;1.25;;
74510;SDS011;62991;50.040;18.400;2022-10-26T13:59:30;3.70;;;1.65;;
74510;SDS011;62991;50.040;18.400;2022-10-26T14:02:34;5.78;;;1.50;;
74510;SDS011;62991;50.040;18.400;2022-10-26T14:05:42;4.57;;;1.55;;
74510;SDS011;62991;50.040;18.400;2022-10-26T14:08:47;5.78;;;1.42;;
74510;SDS011;62991;50.040;18.400;2022-10-26T14:11:51;2.13;;;1.08;;
74510;SDS011;62991;50.040;18.400;2022-10-26T14:15:01;7.32;;;1.58;;
74510;SDS011;62991;50.040;18.400;2022-10-26T14:18:11;5.53;;;2.10;;
74510;SDS011;62991;50.040;18.400;2022-10-26T14:21:31;2.00;;;0.95;;
74510;SDS011;62991;50.040;18.400;2022-10-26T14:24:33;5.07;;;2.00;;
74510;SDS011;62991;50.040;18.400;2022-10-26T14:27:39;10.25;;;3.78;;
74510;SDS011;62991;50.040;18.400;2022-10-26T14:30:42;14.75;;;4.35;;
74510;SDS011;62991;50.040;18.400;2022-10-26T14:33:42;13.68;;;5.03;;
74510;SDS011;62991;50.040;18.400;2022-10-26T14:36:44;17.85;;;6.78;;
74510;SDS011;62991;50.040;18.400;2022-10-26T14:39:48;11.23;;;2.22;;
74510;SDS011;62991;50.040;18.400;2022-10-26T14:42:50;3.42;;;2.28;;
74510;SDS011;62991;50.040;18.400;2022-10-26T14:45:53;14.30;;;5.18;;
74510;SDS011;62991;50.040;18.400;2022-10-26T14:48:56;31.70;;;11.60;;
74510;SDS011;62991;50.040;18.400;2022-10-26T14:51:59;18.25;;;7.63;;
74510;SDS011;62991;50.040;18.400;2022-10-26T14:55:12;33.58;;;11.52;;
74510;SDS011;62991;50.040;18.400;2022-10-26T14:58:16;34.63;;;11.75;;
74510;SDS011;62991;50.040;18.400;2022-10-26T15:05:24;14.38;;;5.38;;
74510;SDS011;62991;50.040;18.400;2022-10-26T15:08:39;13.70;;;5.25;;
74510;SDS011;62991;50.040;18.400;2022-10-26T15:11:40;23.90;;;7.30;;
74510;SDS011;62991;50.040;18.400;2022-10-26T15:14:48;26.17;;;8.00;;
74510;SDS011;62991;50.040;18.400;2022-10-26T15:17:54;49.08;;;14.75;;
74510;SDS011;62991;50.040;18.400;2022-10-26T15:20:57;42.78;;;14.82;;
74510;SDS011;62991;50.040;18.400;2022-10-26T15:23:58;18.80;;;6.90;;
74510;SDS011;62991;50.040;18.400;2022-10-26T15:27:00;22.40;;;6.88;;
74510;SDS011;62991;50.040;18.400;2022-10-26T15:30:34;18.38;;;6.25;;
74510;SDS011;62991;50.040;18.400;2022-10-26T15:33:28;16.75;;;5.28;;
74510;SDS011;62991;50.040;18.400;2022-10-26T15:36:29;14.10;;;5.45;;
74510;SDS011;62991;50.040;18.400;2022-10-26T15:39:31;16.50;;;7.65;;
74510;SDS011;62991;50.040;18.400;2022-10-26T15:42:34;23.50;;;8.13;;
74510;SDS011;62991;50.040;18.400;2022-10-26T15:45:46;15.80;;;5.97;;
74510;SDS011;62991;50.040;18.400;2022-10-26T15:48:54;25.85;;;8.60;;
74510;SDS011;62991;50.040;18.400;2022-10-26T15:51:57;18.70;;;5.65;;
74510;SDS011;62991;50.040;18.400;2022-10-26T15:54:58;14.82;;;5.63;;
74510;SDS011;62991;50.040;18.400;2022-10-26T15:57:59;14.10;;;5.03;;
74510;SDS011;62991;50.040;18.400;2022-10-26T16:00:59;19.65;;;7.20;;
74510;SDS011;62991;50.040;18.400;2022-10-26T16:04:00;22.67;;;7.90;;
74510;SDS011;62991;50.040;18.400;2022-10-26T16:07:01;17.63;;;7.07;;
74510;SDS011;62991;50.040;18.400;2022-10-26T16:10:04;16.33;;;8.13;;
74510;SDS011;62991;50.040;18.400;2022-10-26T16:13:08;44.17;;;15.43;;
74510;SDS011;62991;50.040;18.400;2022-10-26T16:16:12;47.60;;;18.55;;
74510;SDS011;62991;50.040;18.400;2022-10-26T16:19:15;57.67;;;17.67;;
74510;SDS011;62991;50.040;18.400;2022-10-26T16:22:15;53.60;;;21.33;;
74510;SDS011;62991;50.040;18.400;2022-10-26T16:25:17;97.43;;;35.40;;
74510;SDS011;62991;50.040;18.400;2022-10-26T16:28:20;108.15;;;37.45;;
74510;SDS011;62991;50.040;18.400;2022-10-26T16:31:21;253.93;;;89.22;;
74510;SDS011;62991;50.040;18.400;2022-10-26T16:34:21;218.48;;;78.28;;
74510;SDS011;62991;50.040;18.400;2022-10-26T16:37:22;231.38;;;86.78;;
74510;SDS011;62991;50.040;18.400;2022-10-26T16:40:23;212.10;;;79.32;;
74510;SDS011;62991;50.040;18.400;2022-10-26T16:43:24;225.02;;;81.95;;
74510;SDS011;62991;50.040;18.400;2022-10-26T16:46:24;155.25;;;61.03;;
74510;SDS011;62991;50.040;18.400;2022-10-26T16:49:25;130.30;;;48.47;;
74510;SDS011;62991;50.040;18.400;2022-10-26T16:52:26;98.43;;;40.22;;
74510;SDS011;62991;50.040;18.400;2022-10-26T16:55:26;83.57;;;35.00;;
74510;SDS011;62991;50.040;18.400;2022-10-26T16:58:27;73.22;;;29.60;;
74510;SDS011;62991;50.040;18.400;2022-10-26T17:01:28;57.38;;;24.48;;
74510;SDS011;62991;50.040;18.400;2022-10-26T17:04:28;63.47;;;21.48;;
74510;SDS011;62991;50.040;18.400;2022-10-26T17:07:29;69.40;;;23.55;;
74510;SDS011;62991;50.040;18.400;2022-10-26T17:10:30;79.75;;;25.63;;
74510;SDS011;62991;50.040;18.400;2022-10-26T17:13:31;85.97;;;28.00;;
74510;SDS011;62991;50.040;18.400;2022-10-26T17:16:32;65.40;;;21.52;;
74510;SDS011;62991;50.040;18.400;2022-10-26T17:19:34;69.78;;;23.92;;
74510;SDS011;62991;50.040;18.400;2022-10-26T17:22:35;40.20;;;17.90;;
74510;SDS011;62991;50.040;18.400;2022-10-26T17:25:35;40.97;;;16.17;;
74510;SDS011;62991;50.040;18.400;2022-10-26T17:28:37;74.00;;;31.23;;
74510;SDS011;62991;50.040;18.400;2022-10-26T17:31:38;87.57;;;35.38;;
74510;SDS011;62991;50.040;18.400;2022-10-26T17:34:39;54.97;;;21.50;;
74510;SDS011;62991;50.040;18.400;2022-10-26T17:37:40;43.33;;;16.15;;
74510;SDS011;62991;50.040;18.400;2022-10-26T17:40:40;28.92;;;13.07;;
74510;SDS011;62991;50.040;18.400;2022-10-26T17:43:41;30.10;;;14.48;;
74510;SDS011;62991;50.040;18.400;2022-10-26T17:46:43;26.20;;;11.32;;
74510;SDS011;62991;50.040;18.400;2022-10-26T17:49:44;36.75;;;14.07;;
74510;SDS011;62991;50.040;18.400;2022-10-26T17:52:44;50.00;;;21.23;;
74510;SDS011;62991;50.040;18.400;2022-10-26T17:55:45;39.40;;;20.33;;
74510;SDS011;62991;50.040;18.400;2022-10-26T17:58:49;27.48;;;12.25;;
74510;SDS011;62991;50.040;18.400;2022-10-26T18:01:58;29.08;;;12.98;;
74510;SDS011;62991;50.040;18.400;2022-10-26T18:04:58;28.50;;;12.15;;
74510;SDS011;62991;50.040;18.400;2022-10-26T18:07:59;47.22;;;17.95;;
74510;SDS011;62991;50.040;18.400;2022-10-26T18:11:00;47.67;;;16.98;;
74510;SDS011;62991;50.040;18.400;2022-10-26T18:14:01;53.63;;;20.30;;
74510;SDS011;62991;50.040;18.400;2022-10-26T18:17:01;52.50;;;22.02;;
74510;SDS011;62991;50.040;18.400;2022-10-26T18:20:02;39.25;;;15.93;;
74510;SDS011;62991;50.040;18.400;2022-10-26T18:23:03;38.72;;;16.20;;
74510;SDS011;62991;50.040;18.400;2022-10-26T18:26:09;40.35;;;16.08;;
74510;SDS011;62991;50.040;18.400;2022-10-26T18:29:13;42.65;;;17.33;;
74510;SDS011;62991;50.040;18.400;2022-10-26T18:32:14;87.30;;;30.70;;
74510;SDS011;62991;50.040;18.400;2022-10-26T18:35:14;65.63;;;23.38;;
74510;SDS011;62991;50.040;18.400;2022-10-26T18:38:16;40.90;;;15.52;;
74510;SDS011;62991;50.040;18.400;2022-10-26T18:41:17;37.20;;;12.43;;
74510;SDS011;62991;50.040;18.400;2022-10-26T18:44:19;37.90;;;15.80;;
74510;SDS011;62991;50.040;18.400;2022-10-26T18:47:20;59.55;;;26.23;;
74510;SDS011;62991;50.040;18.400;2022-10-26T18:50:20;47.72;;;18.80;;
74510;SDS011;62991;50.040;18.400;2022-10-26T18:53:21;37.65;;;13.20;;
74510;SDS011;62991;50.040;18.400;2022-10-26T18:56:22;35.65;;;13.25;;
74510;SDS011;62991;50.040;18.400;2022-10-26T18:59:23;43.72;;;17.45;;
74510;SDS011;62991;50.040;18.400;2022-10-26T19:02:24;49.63;;;17.40;;
74510;SDS011;62991;50.040;18.400;2022-10-26T19:05:26;63.25;;;22.02;;
74510;SDS011;62991;50.040;18.400;2022-10-26T19:08:27;55.70;;;18.73;;
74510;SDS011;62991;50.040;18.400;2022-10-26T19:11:28;62.00;;;21.27;;
74510;SDS011;62991;50.040;18.400;2022-10-26T19:14:30;49.17;;;21.75;;
74510;SDS011;62991;50.040;18.400;2022-10-26T19:17:31;51.00;;;16.60;;
74510;SDS011;62991;50.040;18.400;2022-10-26T19:20:31;56.33;;;17.65;;
74510;SDS011;62991;50.040;18.400;2022-10-26T19:26:56;20.90;;;9.82;;
74510;SDS011;62991;50.040;18.400;2022-10-26T19:29:56;30.27;;;12.95;;
74510;SDS011;62991;50.040;18.400;2022-10-26T19:32:58;25.77;;;11.63;;
74510;SDS011;62991;50.040;18.400;2022-10-26T19:36:02;23.23;;;9.75;;
74510;SDS011;62991;50.040;18.400;2022-10-26T19:39:05;33.55;;;12.25;;
74510;SDS011;62991;50.040;18.400;2022-10-26T19:42:06;30.45;;;11.48;;
74510;SDS011;62991;50.040;18.400;2022-10-26T19:45:07;28.73;;;11.15;;
74510;SDS011;62991;50.040;18.400;2022-10-26T19:48:08;35.83;;;14.50;;
74510;SDS011;62991;50.040;18.400;2022-10-26T19:51:08;45.40;;;16.17;;
74510;SDS011;62991;50.040;18.400;2022-10-26T19:54:09;58.30;;;16.30;;
74510;SDS011;62991;50.040;18.400;2022-10-26T19:57:10;61.90;;;17.60;;
74510;SDS011;62991;50.040;18.400;2022-10-26T20:00:11;54.83;;;18.90;;
74510;SDS011;62991;50.040;18.400;2022-10-26T20:03:12;38.95;;;13.65;;
74510;SDS011;62991;50.040;18.400;2022-10-26T20:06:12;34.50;;;12.10;;
74510;SDS011;62991;50.040;18.400;2022-10-26T20:09:14;29.50;;;12.65;;
74510;SDS011;62991;50.040;18.400;2022-10-26T20:12:15;35.90;;;14.57;;
74510;SDS011;62991;50.040;18.400;2022-10-26T20:15:15;30.10;;;11.00;;
74510;SDS011;62991;50.040;18.400;2022-10-26T20:18:16;33.50;;;12.43;;
74510;SDS011;62991;50.040;18.400;2022-10-26T20:21:18;40.42;;;14.73;;